sensor_id;sensor_type;location;lat;lon;timestamp;temperature;humidity
51853;DHT22;37894;53.172;6.598;2024-03-25T00:02:13;5.60;99.90
51853;DHT22;37894;53.172;6.598;2024-03-25T00:04:39;6.00;99.90
51853;DHT22;37894;53.172;6.598;2024-03-25T00:07:05;6.00;99.90
51853;DHT22;37894;53.172;6.598;2024-03-25T00:09:30;6.00;99.90
51853;DHT22;37894;53.172;6.598;2024-03-25T00:11:56;5.00;99.90
51853;DHT22;37894;53.172;6.598;2024-03-25T00:14:22;5.50;99.90
51853;DHT22;37894;53.172;6.598;2024-03-25T00:16:48;6.00;99.90
51853;DHT22;37894;53.172;6.598;2024-03-25T00:21:40;5.60;99.90
51853;DHT22;37894;53.172;6.598;2024-03-25T00:24:07;6.20;99.90
51853;DHT22;37894;53.172;6.598;2024-03-25T00:26:33;5.90;99.90
51853;DHT22;37894;53.172;6.598;2024-03-25T00:28:59;5.80;99.90
51853;DHT22;37894;53.172;6.598;2024-03-25T00:31:25;6.50;99.90
51853;DHT22;37894;53.172;6.598;2024-03-25T00:36:17;5.50;99.90
51853;DHT22;37894;53.172;6.598;2024-03-25T00:38:43;5.80;99.90
51853;DHT22;37894;53.172;6.598;2024-03-25T00:43:35;5.90;99.90
51853;DHT22;37894;53.172;6.598;2024-03-25T00:48:27;6.00;99.90
51853;DHT22;37894;53.172;6.598;2024-03-25T00:50:52;5.30;99.90
51853;DHT22;37894;53.172;6.598;2024-03-25T00:53:18;5.00;99.90
51853;DHT22;37894;53.172;6.598;2024-03-25T00:55:44;5.70;99.90
51853;DHT22;37894;53.172;6.598;2024-03-25T00:58:10;6.40;99.90
51853;DHT22;37894;53.172;6.598;2024-03-25T01:03:02;5.00;99.90
51853;DHT22;37894;53.172;6.598;2024-03-25T01:05:28;6.00;99.90
51853;DHT22;37894;53.172;6.598;2024-03-25T01:07:53;5.40;99.90
51853;DHT22;37894;53.172;6.598;2024-03-25T01:12:46;5.80;99.90
51853;DHT22;37894;53.172;6.598;2024-03-25T01:15:12;5.00;99.90
51853;DHT22;37894;53.172;6.598;2024-03-25T01:20:04;5.90;99.90
51853;DHT22;37894;53.172;6.598;2024-03-25T01:22:34;5.40;99.90
51853;DHT22;37894;53.172;6.598;2024-03-25T01:25:00;5.80;99.90
51853;DHT22;37894;53.172;6.598;2024-03-25T01:27:25;5.70;99.90
51853;DHT22;37894;53.172;6.598;2024-03-25T01:32:17;5.80;99.90
51853;DHT22;37894;53.172;6.598;2024-03-25T01:34:43;6.40;99.90
51853;DHT22;37894;53.172;6.598;2024-03-25T01:37:09;5.80;99.90
51853;DHT22;37894;53.172;6.598;2024-03-25T01:42:05;6.30;99.90
51853;DHT22;37894;53.172;6.598;2024-03-25T01:44:31;6.00;99.90
51853;DHT22;37894;53.172;6.598;2024-03-25T01:46:56;6.80;99.90
51853;DHT22;37894;53.172;6.598;2024-03-25T01:51:48;6.10;99.90
51853;DHT22;37894;53.172;6.598;2024-03-25T01:54:14;5.60;99.90
51853;DHT22;37894;53.172;6.598;2024-03-25T01:56:43;5.70;99.90
51853;DHT22;37894;53.172;6.598;2024-03-25T01:59:10;5.90;99.90
51853;DHT22;37894;53.172;6.598;2024-03-25T02:01:36;6.60;99.90
51853;DHT22;37894;53.172;6.598;2024-03-25T02:04:02;5.50;99.90
51853;DHT22;37894;53.172;6.598;2024-03-25T02:06:28;5.80;99.90
51853;DHT22;37894;53.172;6.598;2024-03-25T02:08:56;6.00;99.90
51853;DHT22;37894;53.172;6.598;2024-03-25T02:11:23;4.90;99.90
51853;DHT22;37894;53.172;6.598;2024-03-25T02:13:50;5.80;99.90
51853;DHT22;37894;53.172;6.598;2024-03-25T02:18:42;6.10;99.90
51853;DHT22;37894;53.172;6.598;2024-03-25T02:21:08;5.80;99.90
51853;DHT22;37894;53.172;6.598;2024-03-25T02:23:34;5.40;99.90
51853;DHT22;37894;53.172;6.598;2024-03-25T02:26:00;6.10;99.90
51853;DHT22;37894;53.172;6.598;2024-03-25T02:30:52;5.40;99.90
51853;DHT22;37894;53.172;6.598;2024-03-25T02:33:17;6.50;99.90
51853;DHT22;37894;53.172;6.598;2024-03-25T02:35:43;5.90;99.90
51853;DHT22;37894;53.172;6.598;2024-03-25T02:38:10;7.00;99.90
51853;DHT22;37894;53.172;6.598;2024-03-25T02:40:36;7.00;99.90
51853;DHT22;37894;53.172;6.598;2024-03-25T02:45:28;6.10;99.90
51853;DHT22;37894;53.172;6.598;2024-03-25T02:47:54;5.70;99.90
51853;DHT22;37894;53.172;6.598;2024-03-25T02:50:20;6.00;99.90
51853;DHT22;37894;53.172;6.598;2024-03-25T02:52:46;5.70;99.90
51853;DHT22;37894;53.172;6.598;2024-03-25T02:55:11;5.80;99.90
51853;DHT22;37894;53.172;6.598;2024-03-25T02:57:37;5.50;99.90
51853;DHT22;37894;53.172;6.598;2024-03-25T03:00:03;6.40;99.90
51853;DHT22;37894;53.172;6.598;2024-03-25T03:02:30;5.80;99.90
51853;DHT22;37894;53.172;6.598;2024-03-25T03:04:55;5.40;99.90
51853;DHT22;37894;53.172;6.598;2024-03-25T03:07:21;5.90;99.90
51853;DHT22;37894;53.172;6.598;2024-03-25T03:14:39;5.50;99.90
51853;DHT22;37894;53.172;6.598;2024-03-25T03:19:31;5.30;99.90
51853;DHT22;37894;53.172;6.598;2024-03-25T03:29:16;5.70;99.90
51853;DHT22;37894;53.172;6.598;2024-03-25T03:31:43;5.60;99.90
51853;DHT22;37894;53.172;6.598;2024-03-25T03:34:08;5.30;99.90
51853;DHT22;37894;53.172;6.598;2024-03-25T03:36:34;5.50;99.90
51853;DHT22;37894;53.172;6.598;2024-03-25T03:41:26;5.80;99.90
51853;DHT22;37894;53.172;6.598;2024-03-25T03:43:51;5.70;99.90
51853;DHT22;37894;53.172;6.598;2024-03-25T03:48:43;5.60;99.90
51853;DHT22;37894;53.172;6.598;2024-03-25T03:51:09;6.00;99.90
51853;DHT22;37894;53.172;6.598;2024-03-25T03:53:35;5.60;99.90
51853;DHT22;37894;53.172;6.598;2024-03-25T03:56:03;5.30;99.90
51853;DHT22;37894;53.172;6.598;2024-03-25T03:58:32;6.10;99.90
51853;DHT22;37894;53.172;6.598;2024-03-25T04:00:58;5.40;99.90
51853;DHT22;37894;53.172;6.598;2024-03-25T04:05:50;5.80;99.90
51853;DHT22;37894;53.172;6.598;2024-03-25T04:08:16;5.50;99.90
51853;DHT22;37894;53.172;6.598;2024-03-25T04:10:43;5.50;99.90
51853;DHT22;37894;53.172;6.598;2024-03-25T04:15:40;6.30;99.90
51853;DHT22;37894;53.172;6.598;2024-03-25T04:18:06;5.60;99.90
51853;DHT22;37894;53.172;6.598;2024-03-25T04:20:40;6.20;99.90
51853;DHT22;37894;53.172;6.598;2024-03-25T04:23:06;5.80;99.90
51853;DHT22;37894;53.172;6.598;2024-03-25T04:25:35;5.70;99.90
51853;DHT22;37894;53.172;6.598;2024-03-25T04:28:03;5.70;99.90
51853;DHT22;37894;53.172;6.598;2024-03-25T04:30:29;5.10;99.90
51853;DHT22;37894;53.172;6.598;2024-03-25T04:32:55;5.40;99.90
51853;DHT22;37894;53.172;6.598;2024-03-25T04:35:21;4.80;99.90
51853;DHT22;37894;53.172;6.598;2024-03-25T04:37:46;5.10;99.90
51853;DHT22;37894;53.172;6.598;2024-03-25T04:42:44;5.60;99.90
51853;DHT22;37894;53.172;6.598;2024-03-25T04:45:10;6.00;99.90
51853;DHT22;37894;53.172;6.598;2024-03-25T04:47:37;5.30;99.90
51853;DHT22;37894;53.172;6.598;2024-03-25T04:50:03;4.80;99.90
51853;DHT22;37894;53.172;6.598;2024-03-25T04:52:29;5.60;99.90
51853;DHT22;37894;53.172;6.598;2024-03-25T04:54:55;6.60;99.90
51853;DHT22;37894;53.172;6.598;2024-03-25T04:57:20;5.50;99.90
51853;DHT22;37894;53.172;6.598;2024-03-25T04:59:46;5.40;99.90
51853;DHT22;37894;53.172;6.598;2024-03-25T05:07:05;4.80;99.90
51853;DHT22;37894;53.172;6.598;2024-03-25T05:09:31;6.60;99.90
51853;DHT22;37894;53.172;6.598;2024-03-25T05:11:57;4.60;99.90
51853;DHT22;37894;53.172;6.598;2024-03-25T05:14:22;4.80;99.90
51853;DHT22;37894;53.172;6.598;2024-03-25T05:16:48;6.70;99.90
51853;DHT22;37894;53.172;6.598;2024-03-25T05:19:14;6.40;99.90
51853;DHT22;37894;53.172;6.598;2024-03-25T05:21:40;5.30;99.90
51853;DHT22;37894;53.172;6.598;2024-03-25T05:24:06;4.40;99.90
51853;DHT22;37894;53.172;6.598;2024-03-25T05:26:32;5.10;99.90
51853;DHT22;37894;53.172;6.598;2024-03-25T05:28:57;5.10;99.90
51853;DHT22;37894;53.172;6.598;2024-03-25T05:31:23;5.60;99.90
51853;DHT22;37894;53.172;6.598;2024-03-25T05:33:50;5.80;99.90
51853;DHT22;37894;53.172;6.598;2024-03-25T05:36:15;5.30;99.90
51853;DHT22;37894;53.172;6.598;2024-03-25T05:38:42;4.70;99.90
51853;DHT22;37894;53.172;6.598;2024-03-25T05:41:08;6.20;99.90
51853;DHT22;37894;53.172;6.598;2024-03-25T05:43:34;5.10;99.90
51853;DHT22;37894;53.172;6.598;2024-03-25T05:46:00;4.70;99.90
51853;DHT22;37894;53.172;6.598;2024-03-25T05:48:26;5.10;99.90
51853;DHT22;37894;53.172;6.598;2024-03-25T05:53:26;4.40;99.90
51853;DHT22;37894;53.172;6.598;2024-03-25T05:55:52;5.40;99.90
51853;DHT22;37894;53.172;6.598;2024-03-25T06:00:46;5.30;99.90
51853;DHT22;37894;53.172;6.598;2024-03-25T06:03:12;5.40;99.90
51853;DHT22;37894;53.172;6.598;2024-03-25T06:05:38;5.10;99.90
51853;DHT22;37894;53.172;6.598;2024-03-25T06:08:04;5.60;99.90
51853;DHT22;37894;53.172;6.598;2024-03-25T06:10:29;4.70;99.90
51853;DHT22;37894;53.172;6.598;2024-03-25T06:13:00;5.60;99.90
51853;DHT22;37894;53.172;6.598;2024-03-25T06:15:25;6.60;99.90
51853;DHT22;37894;53.172;6.598;2024-03-25T06:17:51;5.70;99.90
51853;DHT22;37894;53.172;6.598;2024-03-25T06:20:16;5.60;99.90
51853;DHT22;37894;53.172;6.598;2024-03-25T06:22:42;5.50;99.90
51853;DHT22;37894;53.172;6.598;2024-03-25T06:25:08;5.30;99.90
51853;DHT22;37894;53.172;6.598;2024-03-25T06:27:33;5.60;99.90
51853;DHT22;37894;53.172;6.598;2024-03-25T06:29:59;5.30;99.90
51853;DHT22;37894;53.172;6.598;2024-03-25T06:32:45;6.20;99.90
51853;DHT22;37894;53.172;6.598;2024-03-25T06:35:29;5.70;99.90
51853;DHT22;37894;53.172;6.598;2024-03-25T06:37:54;5.70;99.90
51853;DHT22;37894;53.172;6.598;2024-03-25T06:42:47;4.50;99.90
51853;DHT22;37894;53.172;6.598;2024-03-25T06:47:41;5.70;99.90
51853;DHT22;37894;53.172;6.598;2024-03-25T06:50:07;5.60;99.90
51853;DHT22;37894;53.172;6.598;2024-03-25T06:52:33;5.80;99.90
51853;DHT22;37894;53.172;6.598;2024-03-25T06:54:58;5.40;99.90
51853;DHT22;37894;53.172;6.598;2024-03-25T06:57:24;6.20;99.90
51853;DHT22;37894;53.172;6.598;2024-03-25T07:04:43;6.20;99.90
51853;DHT22;37894;53.172;6.598;2024-03-25T07:07:08;6.30;99.90
51853;DHT22;37894;53.172;6.598;2024-03-25T07:09:34;6.00;99.90
51853;DHT22;37894;53.172;6.598;2024-03-25T07:14:25;5.70;99.90
51853;DHT22;37894;53.172;6.598;2024-03-25T07:19:17;6.60;99.90
51853;DHT22;37894;53.172;6.598;2024-03-25T07:21:43;6.50;99.90
51853;DHT22;37894;53.172;6.598;2024-03-25T07:24:08;6.60;99.90
51853;DHT22;37894;53.172;6.598;2024-03-25T07:26:34;6.90;99.90
51853;DHT22;37894;53.172;6.598;2024-03-25T07:29:00;7.00;99.90
51853;DHT22;37894;53.172;6.598;2024-03-25T07:33:51;7.50;99.90
51853;DHT22;37894;53.172;6.598;2024-03-25T07:38:44;7.10;99.90
51853;DHT22;37894;53.172;6.598;2024-03-25T07:41:10;6.60;99.90
51853;DHT22;37894;53.172;6.598;2024-03-25T07:43:35;7.00;99.90
51853;DHT22;37894;53.172;6.598;2024-03-25T07:46:01;7.30;99.90
51853;DHT22;37894;53.172;6.598;2024-03-25T07:53:19;7.20;99.90
51853;DHT22;37894;53.172;6.598;2024-03-25T07:55:44;6.90;99.90
51853;DHT22;37894;53.172;6.598;2024-03-25T07:58:10;7.50;99.90
51853;DHT22;37894;53.172;6.598;2024-03-25T08:03:02;7.40;99.90
51853;DHT22;37894;53.172;6.598;2024-03-25T08:05:30;6.70;99.90
51853;DHT22;37894;53.172;6.598;2024-03-25T08:07:55;7.30;99.90
51853;DHT22;37894;53.172;6.598;2024-03-25T08:10:21;7.70;99.90
51853;DHT22;37894;53.172;6.598;2024-03-25T08:15:14;7.40;99.90
51853;DHT22;37894;53.172;6.598;2024-03-25T08:17:39;7.40;99.90
51853;DHT22;37894;53.172;6.598;2024-03-25T08:20:05;7.70;99.90
51853;DHT22;37894;53.172;6.598;2024-03-25T08:24:57;7.30;99.90
51853;DHT22;37894;53.172;6.598;2024-03-25T08:29:51;7.60;99.90
51853;DHT22;37894;53.172;6.598;2024-03-25T08:32:20;8.30;99.90
51853;DHT22;37894;53.172;6.598;2024-03-25T08:37:12;8.10;99.90
51853;DHT22;37894;53.172;6.598;2024-03-25T08:39:38;8.00;99.90
51853;DHT22;37894;53.172;6.598;2024-03-25T08:42:03;7.90;99.90
51853;DHT22;37894;53.172;6.598;2024-03-25T08:46:55;7.70;99.90
51853;DHT22;37894;53.172;6.598;2024-03-25T08:56:39;8.50;99.90
51853;DHT22;37894;53.172;6.598;2024-03-25T08:59:04;8.70;99.90
51853;DHT22;37894;53.172;6.598;2024-03-25T09:01:31;9.80;99.90
51853;DHT22;37894;53.172;6.598;2024-03-25T09:08:49;8.80;99.90
51853;DHT22;37894;53.172;6.598;2024-03-25T09:11:37;8.20;99.90
51853;DHT22;37894;53.172;6.598;2024-03-25T09:14:03;9.00;99.90
51853;DHT22;37894;53.172;6.598;2024-03-25T09:18:56;8.70;99.90
51853;DHT22;37894;53.172;6.598;2024-03-25T09:21:22;8.80;99.90
51853;DHT22;37894;53.172;6.598;2024-03-25T09:23:50;8.20;99.90
51853;DHT22;37894;53.172;6.598;2024-03-25T09:26:15;8.60;99.90
51853;DHT22;37894;53.172;6.598;2024-03-25T09:28:41;8.30;99.90
51853;DHT22;37894;53.172;6.598;2024-03-25T09:31:08;8.40;99.90
51853;DHT22;37894;53.172;6.598;2024-03-25T09:33:34;8.20;99.90
51853;DHT22;37894;53.172;6.598;2024-03-25T09:35:59;8.20;99.90
51853;DHT22;37894;53.172;6.598;2024-03-25T09:38:25;8.30;99.90
51853;DHT22;37894;53.172;6.598;2024-03-25T09:40:53;8.60;99.90
51853;DHT22;37894;53.172;6.598;2024-03-25T09:43:31;8.80;99.90
51853;DHT22;37894;53.172;6.598;2024-03-25T09:45:58;9.10;99.90
51853;DHT22;37894;53.172;6.598;2024-03-25T09:50:52;9.30;99.90
51853;DHT22;37894;53.172;6.598;2024-03-25T09:53:18;9.40;99.90
51853;DHT22;37894;53.172;6.598;2024-03-25T09:55:46;9.40;99.90
51853;DHT22;37894;53.172;6.598;2024-03-25T09:58:14;9.50;99.90
51853;DHT22;37894;53.172;6.598;2024-03-25T10:00:40;9.70;99.90
51853;DHT22;37894;53.172;6.598;2024-03-25T10:03:06;9.70;99.90
51853;DHT22;37894;53.172;6.598;2024-03-25T10:05:32;10.50;99.90
51853;DHT22;37894;53.172;6.598;2024-03-25T10:07:58;9.70;99.90
51853;DHT22;37894;53.172;6.598;2024-03-25T10:10:24;9.90;99.90
51853;DHT22;37894;53.172;6.598;2024-03-25T10:15:16;11.10;99.90
51853;DHT22;37894;53.172;6.598;2024-03-25T10:17:43;10.10;99.90
51853;DHT22;37894;53.172;6.598;2024-03-25T10:20:14;10.00;99.90
51853;DHT22;37894;53.172;6.598;2024-03-25T10:22:43;10.50;99.90
51853;DHT22;37894;53.172;6.598;2024-03-25T10:25:28;10.00;99.90
51853;DHT22;37894;53.172;6.598;2024-03-25T10:27:54;10.50;99.90
51853;DHT22;37894;53.172;6.598;2024-03-25T10:30:20;10.50;99.90
51853;DHT22;37894;53.172;6.598;2024-03-25T10:32:46;10.40;99.90
51853;DHT22;37894;53.172;6.598;2024-03-25T10:37:39;10.00;99.90
51853;DHT22;37894;53.172;6.598;2024-03-25T10:40:06;9.90;99.90
51853;DHT22;37894;53.172;6.598;2024-03-25T10:42:34;8.90;99.90
51853;DHT22;37894;53.172;6.598;2024-03-25T10:45:01;9.90;99.90
51853;DHT22;37894;53.172;6.598;2024-03-25T10:47:28;9.50;99.90
51853;DHT22;37894;53.172;6.598;2024-03-25T10:49:56;8.70;99.90
51853;DHT22;37894;53.172;6.598;2024-03-25T10:52:24;9.20;99.90
51853;DHT22;37894;53.172;6.598;2024-03-25T10:54:50;9.40;99.90
51853;DHT22;37894;53.172;6.598;2024-03-25T10:57:16;9.00;99.90
51853;DHT22;37894;53.172;6.598;2024-03-25T10:59:43;9.00;99.90
51853;DHT22;37894;53.172;6.598;2024-03-25T11:02:12;8.60;99.90
51853;DHT22;37894;53.172;6.598;2024-03-25T11:04:39;9.00;99.90
51853;DHT22;37894;53.172;6.598;2024-03-25T11:07:09;8.90;99.90
51853;DHT22;37894;53.172;6.598;2024-03-25T11:09:36;8.90;99.90
51853;DHT22;37894;53.172;6.598;2024-03-25T11:16:55;9.30;99.90
51853;DHT22;37894;53.172;6.598;2024-03-25T11:19:25;9.90;99.90
51853;DHT22;37894;53.172;6.598;2024-03-25T11:24:28;9.70;99.90
51853;DHT22;37894;53.172;6.598;2024-03-25T11:26:55;10.10;99.90
51853;DHT22;37894;53.172;6.598;2024-03-25T11:31:49;10.50;99.90
51853;DHT22;37894;53.172;6.598;2024-03-25T11:34:15;10.60;99.90
51853;DHT22;37894;53.172;6.598;2024-03-25T11:36:41;10.80;99.90
51853;DHT22;37894;53.172;6.598;2024-03-25T11:39:07;11.20;99.90
51853;DHT22;37894;53.172;6.598;2024-03-25T11:41:45;11.10;99.90
51853;DHT22;37894;53.172;6.598;2024-03-25T11:44:11;11.10;99.90
51853;DHT22;37894;53.172;6.598;2024-03-25T11:46:40;11.30;99.90
51853;DHT22;37894;53.172;6.598;2024-03-25T11:49:07;11.70;99.90
51853;DHT22;37894;53.172;6.598;2024-03-25T11:51:34;11.70;99.90
51853;DHT22;37894;53.172;6.598;2024-03-25T11:54:03;11.60;99.90
51853;DHT22;37894;53.172;6.598;2024-03-25T11:56:32;11.60;99.90
51853;DHT22;37894;53.172;6.598;2024-03-25T11:59:01;11.80;99.90
51853;DHT22;37894;53.172;6.598;2024-03-25T12:01:29;11.20;99.90
51853;DHT22;37894;53.172;6.598;2024-03-25T12:06:21;11.90;99.90
51853;DHT22;37894;53.172;6.598;2024-03-25T12:08:46;10.90;99.90
51853;DHT22;37894;53.172;6.598;2024-03-25T12:11:31;11.60;99.90
51853;DHT22;37894;53.172;6.598;2024-03-25T12:13:57;11.60;99.90
51853;DHT22;37894;53.172;6.598;2024-03-25T12:16:24;11.70;99.90
51853;DHT22;37894;53.172;6.598;2024-03-25T12:18:49;11.70;99.90
51853;DHT22;37894;53.172;6.598;2024-03-25T12:21:19;10.90;99.90
51853;DHT22;37894;53.172;6.598;2024-03-25T12:23:44;11.00;99.90
51853;DHT22;37894;53.172;6.598;2024-03-25T12:26:10;13.00;99.90
51853;DHT22;37894;53.172;6.598;2024-03-25T12:28:36;12.40;99.90
51853;DHT22;37894;53.172;6.598;2024-03-25T12:31:07;12.60;99.90
51853;DHT22;37894;53.172;6.598;2024-03-25T12:33:43;12.80;99.90
51853;DHT22;37894;53.172;6.598;2024-03-25T12:36:11;12.80;99.90
51853;DHT22;37894;53.172;6.598;2024-03-25T12:38:37;13.00;99.90
51853;DHT22;37894;53.172;6.598;2024-03-25T12:41:13;13.10;99.90
51853;DHT22;37894;53.172;6.598;2024-03-25T12:43:43;13.80;99.90
51853;DHT22;37894;53.172;6.598;2024-03-25T12:46:08;14.20;99.90
51853;DHT22;37894;53.172;6.598;2024-03-25T12:48:36;13.80;99.90
51853;DHT22;37894;53.172;6.598;2024-03-25T12:51:01;13.70;99.90
51853;DHT22;37894;53.172;6.598;2024-03-25T12:55:53;13.30;99.90
51853;DHT22;37894;53.172;6.598;2024-03-25T12:58:19;12.90;99.90
51853;DHT22;37894;53.172;6.598;2024-03-25T13:03:11;12.60;99.90
51853;DHT22;37894;53.172;6.598;2024-03-25T13:08:06;12.30;99.90
51853;DHT22;37894;53.172;6.598;2024-03-25T13:10:32;12.50;99.90
51853;DHT22;37894;53.172;6.598;2024-03-25T13:12:59;12.60;99.90
51853;DHT22;37894;53.172;6.598;2024-03-25T13:15:26;13.00;99.90
51853;DHT22;37894;53.172;6.598;2024-03-25T13:22:44;12.70;99.90
51853;DHT22;37894;53.172;6.598;2024-03-25T13:25:11;12.70;99.90
51853;DHT22;37894;53.172;6.598;2024-03-25T13:27:37;12.80;99.90
51853;DHT22;37894;53.172;6.598;2024-03-25T13:30:06;13.10;99.90
51853;DHT22;37894;53.172;6.598;2024-03-25T13:34:59;12.80;99.90
51853;DHT22;37894;53.172;6.598;2024-03-25T13:37:24;12.70;99.90
51853;DHT22;37894;53.172;6.598;2024-03-25T13:39:50;12.70;99.90
51853;DHT22;37894;53.172;6.598;2024-03-25T13:42:18;12.70;99.90
51853;DHT22;37894;53.172;6.598;2024-03-25T13:47:10;12.50;99.90
51853;DHT22;37894;53.172;6.598;2024-03-25T13:49:35;12.30;99.90
51853;DHT22;37894;53.172;6.598;2024-03-25T13:52:02;12.40;99.90
51853;DHT22;37894;53.172;6.598;2024-03-25T13:54:30;12.40;99.90
51853;DHT22;37894;53.172;6.598;2024-03-25T13:56:59;11.60;99.90
51853;DHT22;37894;53.172;6.598;2024-03-25T13:59:25;11.50;99.90
51853;DHT22;37894;53.172;6.598;2024-03-25T14:04:19;11.10;99.90
51853;DHT22;37894;53.172;6.598;2024-03-25T14:09:25;12.50;99.90
51853;DHT22;37894;53.172;6.598;2024-03-25T14:14:17;13.50;99.90
51853;DHT22;37894;53.172;6.598;2024-03-25T14:16:43;13.50;99.90
51853;DHT22;37894;53.172;6.598;2024-03-25T14:19:09;13.60;99.90
51853;DHT22;37894;53.172;6.598;2024-03-25T14:21:34;14.80;99.90
51853;DHT22;37894;53.172;6.598;2024-03-25T14:24:09;14.30;99.90
51853;DHT22;37894;53.172;6.598;2024-03-25T14:26:35;13.90;99.90
51853;DHT22;37894;53.172;6.598;2024-03-25T14:36:22;13.00;99.90
51853;DHT22;37894;53.172;6.598;2024-03-25T14:38:48;13.20;99.90
51853;DHT22;37894;53.172;6.598;2024-03-25T14:41:19;12.30;99.90
51853;DHT22;37894;53.172;6.598;2024-03-25T14:43:45;12.30;99.90
51853;DHT22;37894;53.172;6.598;2024-03-25T14:55:55;12.40;99.90
51853;DHT22;37894;53.172;6.598;2024-03-25T14:58:21;11.70;99.90
51853;DHT22;37894;53.172;6.598;2024-03-25T15:00:46;11.50;99.90
51853;DHT22;37894;53.172;6.598;2024-03-25T15:03:12;11.40;99.90
51853;DHT22;37894;53.172;6.598;2024-03-25T15:05:38;11.10;99.90
51853;DHT22;37894;53.172;6.598;2024-03-25T15:08:03;11.40;99.90
51853;DHT22;37894;53.172;6.598;2024-03-25T15:10:33;10.40;99.90
51853;DHT22;37894;53.172;6.598;2024-03-25T15:17:51;10.90;99.90
51853;DHT22;37894;53.172;6.598;2024-03-25T15:20:17;11.20;99.90
51853;DHT22;37894;53.172;6.598;2024-03-25T15:22:43;11.00;99.90
51853;DHT22;37894;53.172;6.598;2024-03-25T15:27:36;10.80;99.90
51853;DHT22;37894;53.172;6.598;2024-03-25T15:30:06;10.60;99.90
51853;DHT22;37894;53.172;6.598;2024-03-25T15:34:59;10.60;99.90
51853;DHT22;37894;53.172;6.598;2024-03-25T15:42:16;9.60;99.90
51853;DHT22;37894;53.172;6.598;2024-03-25T15:44:42;10.80;99.90
51853;DHT22;37894;53.172;6.598;2024-03-25T15:49:34;10.50;99.90
51853;DHT22;37894;53.172;6.598;2024-03-25T15:52:00;9.80;99.90
51853;DHT22;37894;53.172;6.598;2024-03-25T15:56:51;10.70;99.90
51853;DHT22;37894;53.172;6.598;2024-03-25T15:59:17;10.50;99.90
51853;DHT22;37894;53.172;6.598;2024-03-25T16:01:43;11.50;99.90
51853;DHT22;37894;53.172;6.598;2024-03-25T16:04:11;10.70;99.90
51853;DHT22;37894;53.172;6.598;2024-03-25T16:06:39;11.40;99.90
51853;DHT22;37894;53.172;6.598;2024-03-25T16:11:31;11.00;99.90
51853;DHT22;37894;53.172;6.598;2024-03-25T16:16:22;10.00;99.90
51853;DHT22;37894;53.172;6.598;2024-03-25T16:21:15;10.40;99.90
51853;DHT22;37894;53.172;6.598;2024-03-25T16:23:42;10.70;99.90
51853;DHT22;37894;53.172;6.598;2024-03-25T16:26:08;10.00;99.90
51853;DHT22;37894;53.172;6.598;2024-03-25T16:28:34;10.50;99.90
51853;DHT22;37894;53.172;6.598;2024-03-25T16:31:03;10.20;99.90
51853;DHT22;37894;53.172;6.598;2024-03-25T16:33:30;10.30;99.90
51853;DHT22;37894;53.172;6.598;2024-03-25T16:35:56;9.90;99.90
51853;DHT22;37894;53.172;6.598;2024-03-25T16:38:21;10.30;99.90
51853;DHT22;37894;53.172;6.598;2024-03-25T16:40:47;10.40;99.90
51853;DHT22;37894;53.172;6.598;2024-03-25T16:48:06;10.10;99.90
51853;DHT22;37894;53.172;6.598;2024-03-25T16:50:32;9.50;99.90
51853;DHT22;37894;53.172;6.598;2024-03-25T16:55:24;9.60;99.90
51853;DHT22;37894;53.172;6.598;2024-03-25T17:00:16;9.40;99.90
51853;DHT22;37894;53.172;6.598;2024-03-25T17:02:42;9.40;99.90
51853;DHT22;37894;53.172;6.598;2024-03-25T17:10:00;8.30;99.90
51853;DHT22;37894;53.172;6.598;2024-03-25T17:14:52;9.10;99.90
51853;DHT22;37894;53.172;6.598;2024-03-25T17:17:18;9.90;99.90
51853;DHT22;37894;53.172;6.598;2024-03-25T17:19:44;8.00;99.90
51853;DHT22;37894;53.172;6.598;2024-03-25T17:22:10;8.90;99.90
51853;DHT22;37894;53.172;6.598;2024-03-25T17:24:39;8.80;99.90
51853;DHT22;37894;53.172;6.598;2024-03-25T17:31:57;9.10;99.90
51853;DHT22;37894;53.172;6.598;2024-03-25T17:36:49;8.60;99.90
51853;DHT22;37894;53.172;6.598;2024-03-25T17:41:43;8.40;99.90
51853;DHT22;37894;53.172;6.598;2024-03-25T17:44:09;8.80;99.90
51853;DHT22;37894;53.172;6.598;2024-03-25T17:46:35;8.90;99.90
51853;DHT22;37894;53.172;6.598;2024-03-25T17:53:54;8.60;99.90
51853;DHT22;37894;53.172;6.598;2024-03-25T17:56:20;8.50;99.90
51853;DHT22;37894;53.172;6.598;2024-03-25T18:01:12;8.20;99.90
51853;DHT22;37894;53.172;6.598;2024-03-25T18:08:48;9.30;99.90
51853;DHT22;37894;53.172;6.598;2024-03-25T18:11:20;8.50;99.90
51853;DHT22;37894;53.172;6.598;2024-03-25T18:16:14;7.40;99.90
51853;DHT22;37894;53.172;6.598;2024-03-25T18:18:40;8.30;99.90
51853;DHT22;37894;53.172;6.598;2024-03-25T18:21:05;8.50;99.90
51853;DHT22;37894;53.172;6.598;2024-03-25T18:25:57;8.10;99.90
51853;DHT22;37894;53.172;6.598;2024-03-25T18:30:56;7.90;99.90
51853;DHT22;37894;53.172;6.598;2024-03-25T18:33:26;8.10;99.90
51853;DHT22;37894;53.172;6.598;2024-03-25T18:35:52;7.10;99.90
51853;DHT22;37894;53.172;6.598;2024-03-25T18:38:17;7.00;99.90
51853;DHT22;37894;53.172;6.598;2024-03-25T18:40:43;7.90;99.90
51853;DHT22;37894;53.172;6.598;2024-03-25T18:45:35;8.30;99.90
51853;DHT22;37894;53.172;6.598;2024-03-25T18:48:01;7.80;99.90
51853;DHT22;37894;53.172;6.598;2024-03-25T18:50:27;7.40;99.90
51853;DHT22;37894;53.172;6.598;2024-03-25T18:52:53;6.80;99.90
51853;DHT22;37894;53.172;6.598;2024-03-25T19:00:11;7.70;99.90
51853;DHT22;37894;53.172;6.598;2024-03-25T19:02:37;7.50;99.90
51853;DHT22;37894;53.172;6.598;2024-03-25T19:05:06;7.90;99.90
51853;DHT22;37894;53.172;6.598;2024-03-25T19:07:33;7.30;99.90
51853;DHT22;37894;53.172;6.598;2024-03-25T19:09:59;7.50;99.90
51853;DHT22;37894;53.172;6.598;2024-03-25T19:17:18;7.40;99.90
51853;DHT22;37894;53.172;6.598;2024-03-25T19:19:43;7.20;99.90
51853;DHT22;37894;53.172;6.598;2024-03-25T19:22:09;7.20;99.90
51853;DHT22;37894;53.172;6.598;2024-03-25T19:27:01;7.10;99.90
51853;DHT22;37894;53.172;6.598;2024-03-25T19:29:27;6.70;99.90
51853;DHT22;37894;53.172;6.598;2024-03-25T19:31:52;6.40;99.90
51853;DHT22;37894;53.172;6.598;2024-03-25T19:34:18;6.60;99.90
51853;DHT22;37894;53.172;6.598;2024-03-25T19:39:10;7.50;99.90
51853;DHT22;37894;53.172;6.598;2024-03-25T19:44:02;6.60;99.90
51853;DHT22;37894;53.172;6.598;2024-03-25T19:46:41;6.70;99.90
51853;DHT22;37894;53.172;6.598;2024-03-25T19:49:07;6.40;99.90
51853;DHT22;37894;53.172;6.598;2024-03-25T19:56:25;6.80;99.90
51853;DHT22;37894;53.172;6.598;2024-03-25T19:58:51;6.20;99.90
51853;DHT22;37894;53.172;6.598;2024-03-25T20:01:16;6.80;99.90
51853;DHT22;37894;53.172;6.598;2024-03-25T20:03:43;6.70;99.90
51853;DHT22;37894;53.172;6.598;2024-03-25T20:06:09;6.80;99.90
51853;DHT22;37894;53.172;6.598;2024-03-25T20:11:00;6.30;99.90
51853;DHT22;37894;53.172;6.598;2024-03-25T20:13:26;6.40;99.90
51853;DHT22;37894;53.172;6.598;2024-03-25T20:15:53;6.50;99.90
51853;DHT22;37894;53.172;6.598;2024-03-25T20:18:18;6.00;99.90
51853;DHT22;37894;53.172;6.598;2024-03-25T20:20:44;5.90;99.90
51853;DHT22;37894;53.172;6.598;2024-03-25T20:25:36;6.40;99.90